createdAt,value
2022-08-31T00:00:57.787Z,17.80
2022-08-31T00:06:02.373Z,17.70
2022-08-31T00:11:08.234Z,17.60
2022-08-31T00:16:12.479Z,17.60
2022-08-31T00:21:14.366Z,17.50
2022-08-31T00:26:17.723Z,17.60
2022-08-31T00:31:19.565Z,17.70
2022-08-31T00:36:23.799Z,17.70
2022-08-31T00:41:29.522Z,17.70
2022-08-31T00:46:43.542Z,17.70
2022-08-31T00:51:55.087Z,17.70
2022-08-31T01:07:04.980Z,17.90
2022-08-31T01:12:08.472Z,17.90
2022-08-31T01:17:10.260Z,17.80
2022-08-31T01:22:30.607Z,17.80
2022-08-31T01:27:35.329Z,17.60
2022-08-31T01:32:39.045Z,17.70
2022-08-31T01:37:40.812Z,17.60
2022-08-31T03:09:02.620Z,17.00
2022-08-31T03:14:04.397Z,17.00
2022-08-31T03:19:07.277Z,18.70
2022-08-31T03:24:09.321Z,17.00
2022-08-31T03:34:15.933Z,17.20
2022-08-31T03:49:23.398Z,17.00
2022-08-31T03:54:25.198Z,16.80
2022-08-31T03:59:27.073Z,18.50
2022-08-31T04:04:28.778Z,16.70
2022-08-31T04:09:30.797Z,16.80
2022-08-31T04:24:38.745Z,17.20
2022-08-31T04:49:55.999Z,17.00
2022-08-31T05:00:00.013Z,17.20
2022-08-31T05:05:02.307Z,16.80
2022-08-31T05:20:09.555Z,16.80
2022-08-31T05:30:13.733Z,16.80
2022-08-31T05:35:16.206Z,17.20
2022-08-31T05:40:18.144Z,17.10
2022-08-31T05:45:19.857Z,16.90
2022-08-31T05:55:24.134Z,16.40
2022-08-31T06:05:29.292Z,17.00
2022-08-31T06:46:02.413Z,17.60
2022-08-31T06:51:05.350Z,17.60
2022-08-31T06:56:20.369Z,17.60
2022-08-31T07:01:35.171Z,17.30
2022-08-31T07:06:42.554Z,17.30
2022-08-31T07:11:51.254Z,17.50
2022-08-31T07:16:55.410Z,17.60
2022-08-31T07:22:00.001Z,17.70
2022-08-31T07:27:08.616Z,17.60
2022-08-31T07:32:12.788Z,17.70
2022-08-31T07:37:33.050Z,17.60
2022-08-31T07:42:44.479Z,17.80
2022-08-31T07:47:47.081Z,17.80
2022-08-31T07:52:54.057Z,18.10
2022-08-31T07:57:56.929Z,18.10
2022-08-31T08:03:07.473Z,18.30
2022-08-31T08:08:13.971Z,18.30
2022-08-31T08:28:40.496Z,19.10
2022-08-31T08:38:48.707Z,19.10
2022-08-31T08:43:57.981Z,18.80
2022-08-31T08:49:11.854Z,18.90
2022-08-31T08:54:19.543Z,19.00
2022-08-31T08:59:21.644Z,19.10
2022-08-31T09:04:39.868Z,19.20
2022-08-31T09:10:01.250Z,19.30
2022-08-31T09:15:36.252Z,19.40
2022-08-31T09:25:53.115Z,19.20
2022-08-31T09:36:25.459Z,19.30
2022-08-31T09:41:32.596Z,19.30
2022-08-31T09:46:35.215Z,19.40
2022-08-31T09:51:38.720Z,19.40
2022-08-31T09:56:56.793Z,19.80
2022-08-31T10:07:14.187Z,17.90
2022-08-31T10:12:27.565Z,19.90
2022-08-31T10:17:36.117Z,19.80
2022-08-31T10:27:47.680Z,19.90
2022-08-31T10:32:56.969Z,20.20
2022-08-31T10:38:10.803Z,20.30
2022-08-31T10:43:31.914Z,20.80
2022-08-31T10:48:34.034Z,20.30
2022-08-31T10:53:47.131Z,20.40
2022-08-31T10:58:57.351Z,20.80
2022-08-31T11:04:04.756Z,21.20
2022-08-31T11:09:18.202Z,21.60
2022-08-31T11:14:31.693Z,21.90
2022-08-31T11:20:05.057Z,22.10
2022-08-31T11:25:28.240Z,21.90
2022-08-31T11:30:33.335Z,21.70
2022-08-31T11:36:06.107Z,22.30
2022-08-31T11:41:11.181Z,22.20
2022-08-31T11:46:28.697Z,22.30
2022-08-31T11:51:42.979Z,22.70
2022-08-31T11:56:47.446Z,22.70
2022-08-31T12:01:49.383Z,22.70
2022-08-31T12:06:51.298Z,23.10
2022-08-31T12:12:06.682Z,23.30
2022-08-31T12:17:22.895Z,23.30
2022-08-31T12:22:55.265Z,24.00
2022-08-31T12:28:17.251Z,24.40
2022-08-31T12:33:23.482Z,24.30
2022-08-31T12:38:30.630Z,24.50
2022-08-31T12:43:39.703Z,24.40
2022-08-31T12:48:53.574Z,24.10
2022-08-31T12:54:20.100Z,24.50
2022-08-31T12:59:59.846Z,23.50
2022-08-31T13:05:02.810Z,23.60
2022-08-31T13:10:22.301Z,23.50
2022-08-31T13:15:36.180Z,23.40
2022-08-31T13:20:46.893Z,23.90
2022-08-31T13:26:15.163Z,23.30
2022-08-31T13:31:23.487Z,23.30
2022-08-31T13:36:33.261Z,23.30
2022-08-31T13:41:39.157Z,22.80
2022-08-31T13:47:00.351Z,22.50
2022-08-31T13:52:13.571Z,23.10
2022-08-31T13:57:25.880Z,23.10
2022-08-31T14:02:37.399Z,24.50
2022-08-31T14:12:59.760Z,25.30
2022-08-31T14:18:29.676Z,24.90
2022-08-31T14:23:35.063Z,25.20
2022-08-31T14:28:41.046Z,23.80
2022-08-31T14:33:50.327Z,23.80
2022-08-31T14:44:13.708Z,23.90
2022-08-31T14:49:16.134Z,23.50
2022-08-31T14:54:18.075Z,23.10
2022-08-31T14:59:21.649Z,23.10
2022-08-31T15:14:30.945Z,25.10
2022-08-31T15:19:35.691Z,25.30
2022-08-31T15:24:45.009Z,24.30
2022-08-31T15:29:56.078Z,24.70
2022-08-31T15:34:58.454Z,23.90
2022-08-31T15:40:02.227Z,24.40
2022-08-31T15:45:07.526Z,25.00
2022-08-31T15:50:09.559Z,23.90
2022-08-31T15:55:12.259Z,23.80
2022-08-31T16:00:14.719Z,23.50
2022-08-31T16:05:17.307Z,23.30
2022-08-31T16:10:20.431Z,23.40
2022-08-31T16:15:24.865Z,23.40
2022-08-31T16:20:27.591Z,23.50
2022-08-31T16:25:30.509Z,23.40
2022-08-31T16:30:51.823Z,22.80
2022-08-31T16:35:53.832Z,22.90
2022-08-31T16:41:01.672Z,23.00
2022-08-31T16:46:30.583Z,22.70
2022-08-31T16:51:31.010Z,22.70
2022-08-31T16:56:35.410Z,22.80
2022-08-31T17:01:44.584Z,22.70
2022-08-31T17:06:48.538Z,22.60
2022-08-31T17:11:57.481Z,22.40
2022-08-31T17:17:05.736Z,22.40
2022-08-31T17:22:09.593Z,22.40
2022-08-31T17:27:18.049Z,22.30
2022-08-31T17:32:24.897Z,22.20
2022-08-31T17:37:32.594Z,22.10
2022-08-31T17:42:35.105Z,22.00
2022-08-31T17:47:37.099Z,21.90
2022-08-31T17:52:38.802Z,22.30
2022-08-31T17:57:42.111Z,21.20
2022-08-31T18:02:44.625Z,21.20
2022-08-31T18:07:50.205Z,20.90
2022-08-31T18:12:52.251Z,20.80
2022-08-31T18:17:55.293Z,20.30
2022-08-31T18:33:05.503Z,20.10
2022-08-31T18:38:09.082Z,19.90
2022-08-31T18:43:29.429Z,20.00
2022-08-31T18:48:33.654Z,19.90
2022-08-31T18:53:36.008Z,19.50
2022-08-31T18:58:39.880Z,20.00
2022-08-31T19:03:42.386Z,19.30
2022-08-31T19:13:51.324Z,19.30
2022-08-31T19:18:56.553Z,19.20
2022-08-31T19:24:00.837Z,19.10
2022-08-31T19:29:08.546Z,18.90
2022-08-31T19:34:12.128Z,19.20
2022-08-31T19:39:22.215Z,19.20
2022-08-31T19:44:28.115Z,18.90
2022-08-31T19:49:31.126Z,18.90
2022-08-31T19:54:38.890Z,18.70
2022-08-31T20:04:42.841Z,18.80
2022-08-31T20:09:44.664Z,18.70
2022-08-31T20:14:46.645Z,18.70
2022-08-31T20:24:51.357Z,18.30
2022-08-31T20:29:53.374Z,18.30
2022-08-31T20:34:58.179Z,18.20
2022-08-31T20:39:59.867Z,18.10
2022-08-31T20:45:01.561Z,17.80
2022-08-31T20:50:07.340Z,17.80
2022-08-31T20:55:12.327Z,17.80
2022-08-31T21:00:15.701Z,18.00
2022-08-31T21:10:40.253Z,17.60
2022-08-31T21:15:46.510Z,17.70
2022-08-31T21:20:48.905Z,17.80
2022-08-31T21:25:50.617Z,17.70
2022-08-31T21:31:06.320Z,17.40
2022-08-31T21:36:17.464Z,17.20
2022-08-31T21:41:21.606Z,17.30
2022-08-31T21:46:26.872Z,17.10
2022-08-31T21:51:38.208Z,17.30
2022-08-31T21:56:43.589Z,17.30
2022-08-31T22:01:45.960Z,17.10
2022-08-31T22:06:49.670Z,17.00
2022-08-31T22:11:54.909Z,17.10
2022-08-31T22:16:59.038Z,16.90
2022-08-31T22:27:06.784Z,16.80
2022-08-31T22:32:12.437Z,16.90
2022-08-31T22:42:16.716Z,16.90
2022-08-31T22:47:19.435Z,16.40
2022-08-31T22:52:21.686Z,16.60
2022-08-31T22:57:23.433Z,17.50
2022-08-31T23:02:26.163Z,16.40
2022-08-31T23:12:30.221Z,16.00
2022-08-31T23:37:48.902Z,16.00
2022-08-31T23:42:50.995Z,15.90
2022-08-31T23:47:52.794Z,16.00
2022-08-31T23:52:54.609Z,17.20
2022-08-31T23:57:58.447Z,16.10
